Time;durP1;ratioP1;P1;durP2;ratioP2;P2;SDS_P1;SDS_P2;PMS_P1;PMS_P2;Temp;Humidity;BMP_temperature;BMP_pressure;BME280_temperature;BME280_humidity;BME280_pressure;Samples;Min_cycle;Max_cycle;Signal;HPM_P1;HPM_P2
2022/09/14 00:00:25;;;;;;;3.20;1.07;;;;;;;;;;5121375;28;20262;-84
2022/09/14 00:02:51;;;;;;;2.93;1.40;;;;;;;;;;5121577;28;20196;-84
2022/09/14 00:05:17;;;;;;;2.67;1.30;;;;;;;;;;5118803;28;20216;-85
2022/09/14 00:07:43;;;;;;;1.83;1.20;;;18.00;99.90;;;;;;5117510;28;20186;-85
2022/09/14 00:10:09;;;;;;;3.33;1.20;;;;;;;;;;5117824;28;20180;-84
2022/09/14 00:12:35;;;;;;;2.03;1.23;;;18.00;99.90;;;;;;5117750;28;20211;-84
2022/09/14 00:15:01;;;;;;;5.13;1.20;;;;;;;;;;5118162;28;20173;-84
2022/09/14 00:17:27;;;;;;;3.67;1.30;;;18.10;99.90;;;;;;5117820;28;20180;-85
2022/09/14 00:19:53;;;;;;;1.80;1.17;;;;;;;;;;5117963;28;20182;-85
2022/09/14 00:22:18;;;;;;;4.53;1.40;;;18.00;99.90;;;;;;5117800;28;20196;-84
2022/09/14 00:24:44;;;;;;;1.57;1.07;;;;;;;;;;5117368;28;20540;-85
2022/09/14 00:27:10;;;;;;;3.73;1.20;;;;;;;;;;5119525;28;20177;-85
2022/09/14 00:29:36;;;;;;;3.23;1.00;;;;;;;;;;5117104;28;20701;-84
2022/09/14 00:32:03;;;;;;;2.13;1.67;;;18.00;99.90;;;;;;5117841;28;20201;-85
2022/09/14 00:34:29;;;;;;;1.73;1.00;;;18.00;99.90;;;;;;5118002;28;20187;-85
2022/09/14 00:36:55;;;;;;;1.17;1.07;;;;;;;;;;5117379;28;20272;-85
2022/09/14 00:39:22;;;;;;;1.77;1.27;;;18.00;99.90;;;;;;5118023;28;20262;-86
2022/09/14 00:41:49;;;;;;;5.03;1.20;;;17.90;99.90;;;;;;5117651;28;20207;-85
2022/09/14 00:44:15;;;;;;;1.57;1.03;;;;;;;;;;5118489;28;20237;-85
2022/09/14 00:46:43;;;;;;;2.50;1.30;;;17.90;99.90;;;;;;5120211;28;20173;-85
2022/09/14 00:49:13;;;;;;;1.10;1.00;;;18.00;99.90;;;;;;5117610;28;20750;-85
2022/09/14 00:51:48;;;;;;;1.37;1.20;;;18.00;99.90;;;;;;5119977;28;20193;-85
2022/09/14 00:54:14;;;;;;;3.50;1.20;;;18.00;99.90;;;;;;5127255;28;20211;-84
2022/09/14 00:56:40;;;;;;;5.50;1.10;;;18.10;99.90;;;;;;5132243;28;20175;-84
2022/09/14 00:59:13;;;;;;;4.00;1.20;;;18.20;99.90;;;;;;5130637;28;20246;-82
2022/09/14 01:01:39;;;;;;;5.70;1.33;;;;;;;;;;5131287;28;20200;-84
2022/09/14 01:04:04;;;;;;;3.00;1.13;;;18.10;99.90;;;;;;5131436;28;20192;-85
2022/09/14 01:06:32;;;;;;;3.90;1.20;;;;;;;;;;5128744;28;20183;-85
2022/09/14 01:09:14;;;;;;;1.20;0.90;;;18.00;99.90;;;;;;5119288;28;20638;-83
2022/09/14 01:11:57;;;;;;;1.47;1.30;;;17.90;99.90;;;;;;5120502;28;20299;-85
2022/09/14 01:14:23;;;;;;;2.30;1.10;;;17.80;99.90;;;;;;5117107;28;20222;-85
2022/09/14 01:17:11;;;;;;;1.03;0.90;;;18.00;99.90;;;;;;5116971;28;20538;-83
2022/09/14 01:19:37;;;;;;;3.37;1.20;;;18.00;99.90;;;;;;5116511;28;20585;-84
2022/09/14 01:22:15;;;;;;;1.67;1.07;;;17.60;99.90;;;;;;5117952;28;20275;-86
2022/09/14 01:25:08;;;;;;;3.23;1.00;;;17.90;99.90;;;;;;5117212;28;20236;-86
2022/09/14 01:27:40;;;;;;;2.73;1.20;;;17.80;99.90;;;;;;5117839;28;20249;-85
2022/09/14 01:30:19;;;;;;;1.27;1.17;;;17.90;99.90;;;;;;5117298;28;20262;-85
2022/09/14 01:32:51;;;;;;;7.87;1.10;;;17.90;99.90;;;;;;5116382;28;20695;-85
2022/09/14 01:35:26;;;;;;;1.13;1.00;;;17.90;99.90;;;;;;5116871;28;20180;-85
2022/09/14 01:38:21;;;;;;;5.43;1.20;;;17.90;99.90;;;;;;5116387;28;20191;-85
2022/09/14 01:40:49;;;;;;;4.77;1.80;;;17.80;99.90;;;;;;5116269;28;20171;-85
2022/09/14 01:43:44;;;;;;;1.20;1.10;;;17.70;99.90;;;;;;5116179;28;20217;-84
2022/09/14 01:46:19;;;;;;;1.30;1.00;;;17.80;99.90;;;;;;5116015;28;20190;-84
2022/09/14 01:49:10;;;;;;;1.70;1.20;;;17.60;99.90;;;;;;5115825;28;20542;-86
2022/09/14 01:51:44;;;;;;;1.50;1.30;;;17.90;99.90;;;;;;5117658;28;20244;-84
2022/09/14 01:54:34;;;;;;;2.53;1.00;;;17.80;99.90;;;;;;5117859;28;20270;-84
2022/09/14 01:57:13;;;;;;;2.37;0.90;;;17.90;99.90;;;;;;5115645;28;20722;-84
2022/09/14 01:59:42;;;;;;;2.37;1.00;;;17.80;99.90;;;;;;5116360;28;20195;-84
2022/09/14 02:02:24;;;;;;;1.23;0.90;;;17.80;99.90;;;;;;5115962;28;20202;-83
2022/09/14 02:05:20;;;;;;;4.67;1.10;;;17.80;99.90;;;;;;5116999;28;20200;-82
2022/09/14 02:07:45;;;;;;;4.37;1.27;;;17.80;99.90;;;;;;5117690;28;20648;-83
2022/09/14 02:10:13;;;;;;;1.30;1.20;;;17.80;99.90;;;;;;5121455;28;20179;-86
2022/09/14 02:12:40;;;;;;;6.07;0.90;;;17.90;99.90;;;;;;5116775;28;20202;-85
2022/09/14 02:15:10;;;;;;;2.47;1.10;;;17.80;99.90;;;;;;5116997;28;20170;-84
2022/09/14 02:17:36;;;;;;;1.77;1.07;;;17.80;99.90;;;;;;5116419;28;20179;-84
2022/09/14 02:20:05;;;;;;;3.63;0.93;;;17.70;99.90;;;;;;5115311;28;20176;-84
2022/09/14 02:22:31;;;;;;;1.20;1.00;;;17.80;99.90;;;;;;5115233;28;20200;-83
2022/09/14 02:24:57;;;;;;;5.17;1.00;;;17.80;99.90;;;;;;5117261;28;20174;-84
2022/09/14 02:27:24;;;;;;;2.73;1.20;;;17.80;99.90;;;;;;5116505;28;20172;-82
2022/09/14 02:29:50;;;;;;;2.50;0.97;;;17.80;99.90;;;;;;5114958;28;20193;-86
2022/09/14 02:32:38;;;;;;;1.67;1.03;;;17.80;99.90;;;;;;5116222;28;20210;-85
2022/09/14 02:35:25;;;;;;;1.60;1.20;;;17.80;99.90;;;;;;5115473;28;20177;-85
2022/09/14 02:38:05;;;;;;;1.70;0.93;;;17.80;99.90;;;;;;5115400;28;20170;-85
2022/09/14 02:40:44;;;;;;;2.70;1.23;;;18.10;99.90;;;;;;5115634;28;20264;-85
2022/09/14 02:43:25;;;;;;;1.27;0.90;;;;;;;;;;5115143;28;20214;-84
2022/09/14 02:46:09;;;;;;;0.80;0.80;;;17.80;99.90;;;;;;5115241;28;20187;-85
2022/09/14 02:48:51;;;;;;;1.50;1.23;;;17.80;99.90;;;;;;5116832;28;20168;-84
2022/09/14 02:51:19;;;;;;;2.23;1.30;;;18.00;99.90;;;;;;5115123;28;20586;-84
2022/09/14 02:54:00;;;;;;;0.93;0.83;;;17.80;99.90;;;;;;5116627;28;20196;-85
2022/09/14 02:56:27;;;;;;;1.73;1.03;;;17.80;99.90;;;;;;5117704;28;20225;-85
2022/09/14 02:58:53;;;;;;;3.40;0.83;;;;;;;;;;5118219;28;20181;-86
2022/09/14 03:01:21;;;;;;;2.53;0.80;;;17.80;99.90;;;;;;5121916;28;20174;-85
2022/09/14 03:03:46;;;;;;;4.83;1.23;;;17.60;99.90;;;;;;5119461;28;20238;-85
2022/09/14 03:06:12;;;;;;;1.00;0.90;;;;;;;;;;5120165;28;20540;-85
2022/09/14 06:18:42;;;;;;;5.40;1.90;;;19.50;99.90;;;;;;5135939;27;20269;-85
2022/09/14 06:21:10;;;;;;;3.50;1.83;;;19.50;99.90;;;;;;5116833;28;20201;-85
2022/09/14 06:23:36;;;;;;;5.87;1.80;;;19.40;99.90;;;;;;5133401;28;20213;-84
2022/09/14 06:26:03;;;;;;;3.50;1.73;;;19.50;99.90;;;;;;5132829;28;20187;-85
2022/09/14 06:28:30;;;;;;;2.93;1.60;;;19.50;99.90;;;;;;5133385;28;20197;-85
2022/09/14 06:30:56;;;;;;;4.77;1.77;;;19.50;99.90;;;;;;5134637;27;20182;-84
2022/09/14 06:33:22;;;;;;;3.83;1.47;;;19.50;99.90;;;;;;5133865;28;20216;-84
2022/09/14 06:35:57;;;;;;;3.07;1.40;;;19.60;99.90;;;;;;5135714;27;20188;-84
2022/09/14 06:38:24;;;;;;;3.63;1.50;;;19.60;99.90;;;;;;5133678;27;20239;-85
2022/09/14 06:40:58;;;;;;;4.80;1.70;;;19.70;99.90;;;;;;5134607;27;20185;-84
2022/09/14 06:43:29;;;;;;;4.30;1.50;;;19.80;99.90;;;;;;5134238;28;20191;-86
2022/09/14 06:46:03;;;;;;;3.33;1.33;;;19.90;99.90;;;;;;5132636;28;20174;-85
2022/09/14 06:48:33;;;;;;;4.17;1.73;;;20.00;99.90;;;;;;5133800;27;20182;-83
2022/09/14 06:50:59;;;;;;;3.27;1.60;;;20.00;99.90;;;;;;5132583;28;20552;-84
2022/09/14 06:53:25;;;;;;;6.47;1.70;;;20.10;99.90;;;;;;5132588;28;20256;-84
2022/09/14 06:55:51;;;;;;;4.13;1.73;;;20.10;99.90;;;;;;5134515;27;20183;-87
2022/09/14 06:58:17;;;;;;;2.13;1.50;;;20.20;99.90;;;;;;5133820;27;20233;-84
2022/09/14 07:00:43;;;;;;;2.60;1.27;;;;;;;;;;5133924;27;20171;-85
2022/09/14 07:03:09;;;;;;;5.20;1.50;;;20.30;99.90;;;;;;5134000;27;20191;-85
2022/09/14 07:05:34;;;;;;;3.07;1.53;;;20.30;99.90;;;;;;5133910;27;20223;-86
2022/09/14 07:08:00;;;;;;;7.37;1.70;;;20.40;99.90;;;;;;5132474;28;20175;-85
2022/09/14 07:10:27;;;;;;;4.63;1.57;;;;;;;;;;5132227;28;20719;-84
2022/09/14 07:12:58;;;;;;;4.83;1.60;;;20.60;99.90;;;;;;5134123;27;20557;-84
2022/09/14 07:15:24;;;;;;;4.83;1.40;;;;;;;;;;5133629;28;20194;-84
2022/09/14 07:17:50;;;;;;;1.97;1.10;;;20.90;99.90;;;;;;5134006;28;20207;-84
2022/09/14 07:20:16;;;;;;;3.27;1.37;;;20.90;99.90;;;;;;5131789;28;20183;-85
2022/09/14 07:22:42;;;;;;;3.70;1.37;;;20.90;99.90;;;;;;5131636;28;20202;-84
2022/09/14 07:25:09;;;;;;;4.63;1.77;;;20.90;99.90;;;;;;5133605;28;20179;-83
2022/09/14 07:27:37;;;;;;;4.30;1.40;;;21.10;99.90;;;;;;5133502;28;20184;-85
2022/09/14 07:30:05;;;;;;;2.77;1.50;;;21.10;99.90;;;;;;5120452;28;20179;-83
2022/09/14 07:32:31;;;;;;;1.30;1.10;;;;;;;;;;5121430;28;20209;-84
2022/09/14 07:34:57;;;;;;;3.57;1.60;;;;;;;;;;5119450;28;20176;-85
2022/09/14 07:37:22;;;;;;;3.63;1.80;;;21.40;99.90;;;;;;5118733;28;20559;-84
2022/09/14 07:39:48;;;;;;;5.37;1.50;;;21.40;99.90;;;;;;5118174;28;20176;-84
2022/09/14 07:42:14;;;;;;;1.63;1.50;;;;;;;;;;5119540;28;20274;-86
2022/09/14 07:44:40;;;;;;;3.17;1.53;;;21.60;99.90;;;;;;5119605;28;20171;-85
2022/09/14 07:47:06;;;;;;;6.63;1.90;;;;;;;;;;5119048;28;20182;-84
2022/09/14 07:49:31;;;;;;;3.67;1.40;;;21.80;99.90;;;;;;5118598;28;20179;-84
2022/09/14 07:51:58;;;;;;;4.40;1.70;;;;;;;;;;5118019;28;20556;-83
2022/09/14 07:54:24;;;;;;;6.00;1.53;;;22.10;99.90;;;;;;5118029;28;20176;-84
2022/09/14 07:56:50;;;;;;;4.33;1.53;;;22.30;99.90;;;;;;5119027;28;20531;-83
2022/09/14 07:59:16;;;;;;;3.23;1.50;;;22.40;99.90;;;;;;5117352;28;20641;-81
2022/09/14 08:01:42;;;;;;;4.57;1.57;;;;;;;;;;5117970;28;20195;-84
2022/09/14 08:04:08;;;;;;;4.40;1.60;;;22.60;99.90;;;;;;5117834;28;20223;-83
2022/09/14 08:06:35;;;;;;;3.10;1.70;;;;;;;;;;5119653;28;20165;-85
2022/09/14 08:09:05;;;;;;;2.50;1.40;;;22.90;99.90;;;;;;5117674;28;20187;-83
2022/09/14 08:11:34;;;;;;;4.93;2.20;;;23.30;99.90;;;;;;5119167;28;20217;-84
2022/09/14 08:14:05;;;;;;;9.83;1.73;;;23.30;99.90;;;;;;5117570;28;20180;-85
2022/09/14 08:16:33;;;;;;;4.33;1.50;;;23.50;99.90;;;;;;5120180;28;20217;-83
2022/09/14 08:19:04;;;;;;;2.87;1.50;;;23.80;99.90;;;;;;5120744;28;20236;-86
2022/09/14 08:21:31;;;;;;;2.57;1.70;;;23.80;99.90;;;;;;5118457;28;20196;-84
2022/09/14 08:23:58;;;;;;;4.60;1.80;;;23.80;99.90;;;;;;5124583;28;20711;-83
2022/09/14 08:26:26;;;;;;;5.90;1.60;;;23.90;99.90;;;;;;5120606;28;20174;-84
2022/09/14 08:28:53;;;;;;;9.20;1.80;;;24.50;99.90;;;;;;5120725;28;20646;-84
2022/09/14 08:31:24;;;;;;;4.77;1.77;;;24.70;99.90;;;;;;5120254;28;20223;-82
2022/09/14 08:33:51;;;;;;;3.93;1.80;;;25.00;99.90;;;;;;5119749;28;20176;-81
2022/09/14 08:36:19;;;;;;;3.03;1.73;;;25.20;99.90;;;;;;5120701;28;20534;-84
2022/09/14 08:38:46;;;;;;;6.93;1.60;;;;;;;;;;5117961;28;20211;-83
2022/09/14 08:41:27;;;;;;;7.20;1.73;;;25.70;99.90;;;;;;5117461;28;20212;-83
2022/09/14 08:43:53;;;;;;;5.37;1.50;;;25.60;99.90;;;;;;5119790;28;20216;-83
2022/09/14 08:46:49;;;;;;;4.17;1.60;;;25.60;99.90;;;;;;5127336;28;20190;-83
2022/09/14 08:49:27;;;;;;;4.83;1.63;;;25.50;99.90;;;;;;5128965;28;20172;-80
2022/09/14 08:51:54;;;;;;;5.47;1.70;;;25.30;99.90;;;;;;5130204;28;20196;-79
2022/09/14 08:54:20;;;;;;;6.40;1.43;;;25.20;99.90;;;;;;5125390;28;20172;-82
2022/09/14 08:56:54;;;;;;;3.37;1.60;;;25.20;99.90;;;;;;5128575;28;20225;-82
2022/09/14 08:59:35;;;;;;;7.00;2.00;;;25.20;99.90;;;;;;5120381;28;20258;-83
2022/09/14 09:02:17;;;;;;;5.20;1.80;;;24.70;99.90;;;;;;5116594;28;20193;-85
2022/09/14 09:04:46;;;;;;;5.83;1.77;;;24.40;99.90;;;;;;5116300;28;20158;-85
2022/09/14 09:07:20;;;;;;;7.07;1.70;;;24.40;99.90;;;;;;5117679;28;20186;-85
2022/09/14 09:09:49;;;;;;;6.20;1.83;;;24.30;99.90;;;;;;5117333;28;20163;-84
2022/09/14 09:12:33;;;;;;;6.57;2.27;;;24.40;99.90;;;;;;5115999;28;20194;-84
2022/09/14 09:15:03;;;;;;;8.70;1.90;;;24.40;99.90;;;;;;5118531;28;20533;-86
2022/09/14 09:17:37;;;;;;;7.53;1.93;;;24.40;99.90;;;;;;5118935;28;20244;-84
2022/09/14 09:20:26;;;;;;;3.47;1.20;;;24.30;99.90;;;;;;5119117;28;20163;-85
2022/09/14 09:22:58;;;;;;;4.90;1.67;;;24.10;99.90;;;;;;5117773;28;20199;-84
2022/09/14 09:25:30;;;;;;;6.33;2.20;;;24.00;99.90;;;;;;5118050;28;20173;-84
2022/09/14 09:28:10;;;;;;;6.93;1.97;;;23.90;99.90;;;;;;5120842;28;20309;-83
2022/09/14 09:30:39;;;;;;;4.87;1.60;;;23.80;99.90;;;;;;5120097;28;20156;-85
2022/09/14 09:33:04;;;;;;;4.50;1.90;;;23.70;99.90;;;;;;5121046;28;20184;-84
2022/09/14 09:35:32;;;;;;;4.47;1.80;;;23.60;99.90;;;;;;5122164;28;20240;-86
2022/09/14 09:37:58;;;;;;;4.83;1.53;;;;;;;;;;5115969;28;20288;-84
2022/09/14 09:40:40;;;;;;;2.50;1.43;;;23.80;99.90;;;;;;5120582;28;20599;-84
2022/09/14 09:43:24;;;;;;;9.43;1.90;;;24.00;99.90;;;;;;5116827;28;20192;-85
2022/09/14 09:45:55;;;;;;;2.80;1.60;;;24.00;99.90;;;;;;5117375;28;20240;-83
2022/09/14 09:48:28;;;;;;;5.33;1.93;;;24.00;99.90;;;;;;5117950;28;20199;-84
2022/09/14 09:50:54;;;;;;;4.77;1.80;;;24.50;99.90;;;;;;5118176;28;20192;-85
2022/09/14 09:53:21;;;;;;;5.60;2.37;;;25.00;99.90;;;;;;5116424;28;20553;-84
2022/09/14 09:55:49;;;;;;;6.80;1.90;;;25.00;99.90;;;;;;5118669;28;20255;-83
2022/09/14 09:58:36;;;;;;;3.27;1.53;;;25.20;99.90;;;;;;5115980;28;20198;-81
2022/09/14 10:01:16;;;;;;;3.67;1.70;;;25.10;99.90;;;;;;5117352;28;20183;-83
2022/09/14 10:03:42;;;;;;;4.13;1.50;;;25.10;99.90;;;;;;5117647;28;20246;-83
2022/09/14 10:06:10;;;;;;;7.43;1.83;;;25.40;99.90;;;;;;5116320;28;20698;-83
2022/09/14 10:08:44;;;;;;;1.97;1.27;;;25.60;99.90;;;;;;5118560;28;20183;-82
2022/09/14 10:11:30;;;;;;;3.10;1.47;;;26.00;99.90;;;;;;5116800;28;20166;-82
2022/09/14 10:13:57;;;;;;;4.00;1.63;;;26.00;99.90;;;;;;5117894;28;20168;-83
2022/09/14 10:16:25;;;;;;;3.83;1.40;;;26.00;99.90;;;;;;5117498;28;20215;-84
2022/09/14 10:18:52;;;;;;;3.13;1.30;;;25.50;99.90;;;;;;5115802;28;20614;-83
2022/09/14 10:21:19;;;;;;;4.57;1.60;;;25.60;99.90;;;;;;5115943;28;20180;-84
2022/09/14 10:23:46;;;;;;;2.40;1.20;;;;;;;;;;5116521;28;20536;-83
2022/09/14 10:26:14;;;;;;;5.73;1.70;;;;;;;;;;5123565;28;20164;-85
2022/09/14 10:28:51;;;;;;;3.73;1.40;;;26.00;99.90;;;;;;5118821;28;20193;-84
2022/09/14 10:31:19;;;;;;;4.60;1.40;;;26.30;99.90;;;;;;5119161;28;20157;-83
2022/09/14 10:33:46;;;;;;;5.00;1.50;;;26.70;99.90;;;;;;5116827;28;20539;-83
2022/09/14 10:36:28;;;;;;;5.13;1.37;;;26.80;99.90;;;;;;5121403;28;20233;-84
2022/09/14 10:39:02;;;;;;;4.40;1.60;;;26.50;99.90;;;;;;5119332;28;20148;-84
2022/09/14 10:41:31;;;;;;;5.20;1.80;;;25.60;99.90;;;;;;5119445;28;20645;-84
2022/09/14 10:44:37;;;;;;;3.40;1.77;;;25.80;99.90;;;;;;5119948;28;20262;-83
2022/09/14 10:47:32;;;;;;;5.93;1.73;;;25.30;99.90;;;;;;5121369;28;20515;-85
2022/09/14 10:50:52;;;;;;;4.30;1.63;;;25.00;99.90;;;;;;5121000;28;20176;-85
2022/09/14 10:53:27;;;;;;;4.83;1.57;;;24.50;99.90;;;;;;5060273;28;20193;-84
2022/09/14 10:56:12;;;;;;;3.37;1.63;;;24.30;99.90;;;;;;5110626;28;20583;-83
2022/09/14 10:58:50;;;;;;;3.03;1.33;;;24.10;99.90;;;;;;5118624;28;20254;-84
2022/09/14 11:01:34;;;;;;;3.23;1.40;;;24.00;99.90;;;;;;5118471;28;20168;-84
2022/09/14 11:04:21;;;;;;;2.73;1.53;;;24.10;99.90;;;;;;5119162;28;20659;-85
2022/09/14 11:07:11;;;;;;;6.43;2.00;;;24.40;99.90;;;;;;5124315;27;20183;-84
2022/09/14 11:09:59;;;;;;;2.77;1.50;;;24.60;99.90;;;;;;5123882;28;20159;-84
2022/09/14 11:12:45;;;;;;;8.83;1.67;;;25.40;99.90;;;;;;5122685;27;20233;-85
2022/09/14 11:15:26;;;;;;;4.57;1.43;;;25.40;99.90;;;;;;5121783;28;20182;-84
2022/09/14 11:18:13;;;;;;;3.43;1.37;;;26.10;99.90;;;;;;5121320;28;20202;-84
2022/09/14 11:21:00;;;;;;;2.40;1.20;;;27.10;99.90;;;;;;5120913;28;20171;-83
2022/09/14 11:24:03;;;;;;;2.37;1.10;;;27.60;99.90;;;;;;5121573;28;20672;-85
2022/09/14 11:26:34;;;;;;;2.43;1.30;;;27.90;99.90;;;;;;5122786;28;20179;-83
2022/09/14 11:29:23;;;;;;;2.23;1.00;;;28.20;99.90;;;;;;5123367;28;20219;-85
2022/09/14 11:31:53;;;;;;;3.10;1.30;;;27.70;99.90;;;;;;5123015;28;20584;-85
2022/09/14 11:34:24;;;;;;;3.07;1.17;;;27.60;99.90;;;;;;5122851;28;20173;-84
2022/09/14 11:36:57;;;;;;;4.67;1.63;;;27.10;99.90;;;;;;5122807;28;20184;-84
2022/09/14 11:39:30;;;;;;;3.40;1.40;;;26.90;99.90;;;;;;5120800;28;20165;-84
2022/09/14 11:42:15;;;;;;;4.80;1.30;;;26.90;99.90;;;;;;5123126;28;20270;-84
2022/09/14 11:44:45;;;;;;;4.10;1.40;;;26.90;99.90;;;;;;5120895;28;20160;-83
2022/09/14 11:47:17;;;;;;;3.73;1.60;;;26.60;99.90;;;;;;5122276;28;20192;-82
2022/09/14 11:50:15;;;;;;;4.37;1.50;;;26.20;99.90;;;;;;5122886;28;20171;-83
2022/09/14 11:52:41;;;;;;;3.07;1.50;;;25.90;99.90;;;;;;5123983;28;20215;-84
2022/09/14 11:55:15;;;;;;;6.20;1.47;;;25.80;99.90;;;;;;5126423;28;20634;-82
2022/09/14 11:57:44;;;;;;;3.60;1.60;;;25.40;99.90;;;;;;5125293;28;20167;-83
2022/09/14 12:00:22;;;;;;;2.43;1.23;;;25.40;99.90;;;;;;5125841;28;20175;-84
2022/09/14 12:03:13;;;;;;;5.17;1.40;;;25.10;99.90;;;;;;5126573;28;20202;-84
2022/09/14 12:05:43;;;;;;;2.87;1.73;;;25.00;99.90;;;;;;5124587;28;20180;-83
2022/09/14 12:08:37;;;;;;;5.83;1.53;;;24.70;99.90;;;;;;5123099;28;20226;-83
2022/09/14 12:11:08;;;;;;;3.47;1.20;;;24.40;99.90;;;;;;5123679;28;20163;-84
2022/09/14 12:13:36;;;;;;;5.50;1.60;;;24.30;99.90;;;;;;5121555;28;20196;-84
2022/09/14 12:16:04;;;;;;;3.93;1.50;;;24.10;99.90;;;;;;5120527;28;20172;-82
2022/09/14 12:18:31;;;;;;;6.53;1.50;;;24.00;99.90;;;;;;5119090;28;20184;-82
2022/09/14 12:21:21;;;;;;;5.53;1.50;;;23.80;99.90;;;;;;5117738;28;20203;-84
2022/09/14 12:23:51;;;;;;;3.80;2.00;;;23.70;99.90;;;;;;5118555;28;20637;-82
2022/09/14 12:26:17;;;;;;;4.07;1.53;;;;;;;;;;5117185;28;20187;-84
2022/09/14 12:29:23;;;;;;;5.23;1.40;;;23.50;99.90;;;;;;5118565;28;20198;-84
2022/09/14 12:32:00;;;;;;;3.07;1.43;;;23.40;99.90;;;;;;5117321;28;20193;-83
2022/09/14 12:34:30;;;;;;;3.77;2.00;;;23.40;99.90;;;;;;5119485;27;20178;-83
2022/09/14 12:36:59;;;;;;;5.40;1.33;;;23.40;99.90;;;;;;5118455;28;20501;-83
2022/09/14 12:39:34;;;;;;;3.90;1.53;;;23.40;99.90;;;;;;5118552;28;20206;-86
2022/09/14 12:42:21;;;;;;;3.77;1.53;;;23.50;99.90;;;;;;5118326;28;20195;-84
2022/09/14 12:44:47;;;;;;;5.90;1.97;;;;;;;;;;5111506;28;20194;-86
2022/09/14 12:47:28;;;;;;;4.10;1.87;;;23.50;99.90;;;;;;5118610;28;20193;-85
2022/09/14 12:50:02;;;;;;;3.33;1.53;;;23.50;99.90;;;;;;5121405;28;20174;-86
2022/09/14 12:52:51;;;;;;;2.67;1.23;;;23.50;99.90;;;;;;5119752;28;20197;-84
2022/09/14 12:55:34;;;;;;;3.20;1.50;;;23.50;99.90;;;;;;5119542;28;20162;-85
2022/09/14 12:58:15;;;;;;;4.63;1.77;;;23.50;99.90;;;;;;5126286;28;20159;-85
2022/09/14 13:01:18;;;;;;;4.33;1.90;;;23.50;99.90;;;;;;5116263;28;20172;-85
2022/09/14 13:03:44;;;;;;;3.83;1.50;;;;;;;;;;5118346;28;20175;-82
2022/09/14 13:06:12;;;;;;;3.60;1.57;;;24.20;99.90;;;;;;5117284;28;20529;-84
2022/09/14 13:08:42;;;;;;;2.60;1.40;;;24.40;99.90;;;;;;5117285;28;20275;-86
2022/09/14 13:11:08;;;;;;;5.80;1.73;;;24.50;99.90;;;;;;5115973;28;20214;-83
2022/09/14 13:13:35;;;;;;;3.57;1.43;;;24.40;99.90;;;;;;5116129;28;20226;-85
2022/09/14 13:16:04;;;;;;;4.07;1.57;;;23.90;99.90;;;;;;5115759;28;20714;-83
2022/09/14 13:18:33;;;;;;;3.50;1.27;;;24.00;99.90;;;;;;5117336;28;20685;-83
2022/09/14 13:21:33;;;;;;;2.83;1.60;;;23.80;99.90;;;;;;5116206;28;20186;-83
2022/09/14 13:23:59;;;;;;;3.87;1.53;;;;;;;;;;5082393;28;20187;-84
2022/09/14 13:26:27;;;;;;;3.10;1.47;;;23.40;99.90;;;;;;5116338;28;20174;-83
2022/09/14 13:28:55;;;;;;;5.30;2.23;;;23.20;99.90;;;;;;5115641;28;20182;-84
2022/09/14 13:31:34;;;;;;;7.90;1.70;;;23.20;99.90;;;;;;5116772;28;20248;-83
2022/09/14 13:34:01;;;;;;;4.40;1.50;;;;;;;;;;5117578;28;20164;-84
2022/09/14 13:36:39;;;;;;;5.10;1.40;;;23.00;99.90;;;;;;5115917;28;20171;-82
2022/09/14 13:39:35;;;;;;;3.30;1.80;;;23.10;99.90;;;;;;5117161;28;20174;-85
2022/09/14 13:42:02;;;;;;;3.73;1.50;;;22.90;99.90;;;;;;5117035;28;20268;-82
2022/09/14 13:44:45;;;;;;;6.33;1.73;;;22.90;99.90;;;;;;5115594;28;20176;-83
2022/09/14 13:47:14;;;;;;;6.43;1.70;;;22.90;99.90;;;;;;5116935;28;20642;-83
2022/09/14 13:49:41;;;;;;;5.23;1.70;;;22.80;99.90;;;;;;5115027;28;20521;-84
2022/09/14 13:52:22;;;;;;;1.73;1.40;;;22.30;99.90;;;;;;5115444;28;20253;-83
2022/09/14 13:54:49;;;;;;;3.63;1.30;;;22.40;99.90;;;;;;5115508;28;20171;-83
2022/09/14 13:57:22;;;;;;;2.93;1.43;;;22.40;99.90;;;;;;5117004;28;20189;-82
2022/09/14 14:00:08;;;;;;;3.50;1.30;;;22.30;99.90;;;;;;5114814;28;20167;-83
2022/09/14 14:02:35;;;;;;;4.47;1.60;;;22.30;99.90;;;;;;5114772;28;20203;-82
2022/09/14 14:05:01;;;;;;;4.83;1.30;;;;;;;;;;5116204;28;20215;-83
2022/09/14 14:07:32;;;;;;;3.13;1.60;;;22.30;99.90;;;;;;5115691;28;20594;-82
2022/09/14 14:10:00;;;;;;;7.77;1.83;;;22.30;99.90;;;;;;5114235;28;20172;-83
2022/09/14 14:12:41;;;;;;;6.07;1.37;;;22.20;99.90;;;;;;5114253;28;20261;-85
2022/09/14 14:15:27;;;;;;;5.87;1.53;;;21.90;99.90;;;;;;5114920;28;20630;-84
2022/09/14 14:17:53;;;;;;;4.27;1.53;;;22.10;99.90;;;;;;5114876;28;20191;-85
2022/09/14 14:20:28;;;;;;;4.17;1.80;;;21.90;99.90;;;;;;5115364;28;20546;-85
2022/09/14 14:23:09;;;;;;;3.63;1.50;;;22.00;99.90;;;;;;5115722;28;20706;-85
2022/09/14 14:25:55;;;;;;;3.57;1.17;;;21.70;99.90;;;;;;5115056;28;20171;-84
2022/09/14 14:28:29;;;;;;;2.50;1.37;;;21.90;99.90;;;;;;5115878;28;20232;-85
2022/09/14 14:30:56;;;;;;;3.13;1.27;;;21.90;99.90;;;;;;5116217;28;20177;-83
2022/09/14 14:33:23;;;;;;;7.87;2.00;;;21.70;99.90;;;;;;5115955;28;20199;-82
2022/09/14 14:35:51;;;;;;;4.33;1.27;;;21.60;99.90;;;;;;5116060;28;20529;-84
2022/09/14 14:38:17;;;;;;;4.97;1.30;;;;;;;;;;5114595;28;20267;-82
2022/09/14 14:40:44;;;;;;;5.93;1.47;;;21.40;99.90;;;;;;5119681;28;20182;-83
2022/09/14 14:43:23;;;;;;;4.63;1.50;;;21.20;99.90;;;;;;5119694;28;20593;-84
2022/09/14 14:45:58;;;;;;;3.07;1.40;;;21.10;99.90;;;;;;5122058;28;20232;-84
2022/09/14 14:48:25;;;;;;;2.00;1.30;;;;;;;;;;5123820;28;20187;-80
2022/09/14 14:50:54;;;;;;;2.50;1.60;;;;;;;;;;5130783;28;20179;-83
2022/09/14 14:53:21;;;;;;;2.43;1.60;;;20.90;99.90;;;;;;5129935;28;20186;-82
2022/09/14 14:55:47;;;;;;;2.37;1.47;;;20.80;99.90;;;;;;5125942;28;20178;-81
2022/09/14 14:58:16;;;;;;;5.20;1.83;;;20.40;99.90;;;;;;5120360;28;20566;-85
2022/09/14 15:00:42;;;;;;;2.60;1.20;;;20.70;99.90;;;;;;5120051;28;20250;-83
2022/09/14 15:03:08;;;;;;;3.33;1.87;;;;;;;;;;5119859;28;20218;-83
2022/09/14 15:05:38;;;;;;;6.27;1.60;;;20.20;99.90;;;;;;5120322;28;20186;-82
2022/09/14 15:08:03;;;;;;;4.57;1.97;;;20.30;99.90;;;;;;5119413;28;20695;-82
2022/09/14 15:10:30;;;;;;;3.10;1.50;;;20.20;99.90;;;;;;5120532;28;20237;-84
2022/09/14 15:12:56;;;;;;;4.67;1.57;;;;;;;;;;5119076;28;20199;-81
2022/09/14 15:15:24;;;;;;;3.50;1.60;;;20.00;99.90;;;;;;5120702;28;20170;-83
2022/09/14 15:17:52;;;;;;;1.70;1.33;;;20.20;99.90;;;;;;5120076;28;20201;-84
2022/09/14 15:20:19;;;;;;;4.50;1.67;;;20.00;99.90;;;;;;5123165;27;20541;-83
2022/09/14 15:22:46;;;;;;;1.93;1.60;;;20.20;99.90;;;;;;5119833;28;20203;-86
2022/09/14 15:25:13;;;;;;;4.27;1.53;;;20.00;99.90;;;;;;5121808;28;20577;-82
2022/09/14 15:27:40;;;;;;;3.80;1.50;;;20.00;99.90;;;;;;5120799;28;20302;-83
2022/09/14 15:30:07;;;;;;;5.83;1.33;;;19.90;99.90;;;;;;5119869;28;20265;-87
2022/09/14 15:32:33;;;;;;;5.87;1.63;;;20.10;99.90;;;;;;5119995;28;20674;-84
2022/09/14 15:34:59;;;;;;;6.10;1.60;;;20.20;99.90;;;;;;5121888;28;20240;-84
2022/09/14 15:37:25;;;;;;;6.90;1.90;;;;;;;;;;5119055;28;20640;-83
2022/09/14 15:39:51;;;;;;;5.23;1.50;;;;;;;;;;5119335;28;20176;-82
2022/09/14 15:42:17;;;;;;;2.53;1.47;;;20.10;99.90;;;;;;5119299;28;20301;-84
2022/09/14 15:44:43;;;;;;;3.73;1.20;;;20.10;99.90;;;;;;5120533;28;20264;-83
2022/09/14 15:47:10;;;;;;;4.17;1.83;;;19.90;99.90;;;;;;5119630;28;20226;-83
2022/09/14 15:49:36;;;;;;;4.27;1.40;;;19.80;99.90;;;;;;5119319;28;20181;-82
2022/09/14 15:52:01;;;;;;;4.10;1.50;;;19.90;99.90;;;;;;5119057;28;20570;-82
2022/09/14 15:54:31;;;;;;;3.40;1.50;;;20.10;99.90;;;;;;5119721;28;20184;-82
2022/09/14 15:56:58;;;;;;;2.70;1.30;;;20.10;99.90;;;;;;5121589;28;20612;-85
2022/09/14 15:59:25;;;;;;;5.03;1.40;;;20.30;99.90;;;;;;5121572;28;20210;-83
2022/09/14 16:01:51;;;;;;;6.33;1.90;;;20.10;99.90;;;;;;5122732;28;20292;-83
2022/09/14 16:04:18;;;;;;;5.20;1.90;;;20.00;99.90;;;;;;5120167;28;20189;-83
2022/09/14 16:06:44;;;;;;;5.00;1.90;;;;;;;;;;5120595;28;20522;-84
2022/09/14 16:09:12;;;;;;;4.63;1.70;;;19.90;99.90;;;;;;5121639;28;20168;-82
2022/09/14 16:11:38;;;;;;;2.40;1.40;;;19.90;99.90;;;;;;5122801;28;20231;-83
2022/09/14 16:14:05;;;;;;;2.67;1.70;;;19.90;99.90;;;;;;5123286;28;20560;-81
2022/09/14 16:16:33;;;;;;;3.43;1.73;;;19.80;99.90;;;;;;5121059;28;20539;-84
2022/09/14 16:19:13;;;;;;;3.33;1.80;;;20.10;99.90;;;;;;5123148;27;20566;-83
2022/09/14 16:21:40;;;;;;;4.77;1.70;;;19.90;99.90;;;;;;5121602;28;20188;-83
2022/09/14 16:24:09;;;;;;;5.53;1.60;;;20.10;99.90;;;;;;5119829;28;20180;-82
2022/09/14 16:26:36;;;;;;;1.63;1.50;;;20.00;99.90;;;;;;5119700;28;20184;-83
2022/09/14 16:29:04;;;;;;;3.13;1.57;;;19.90;99.90;;;;;;5117818;28;20307;-84
2022/09/14 16:31:32;;;;;;;4.70;1.50;;;19.80;99.90;;;;;;5119157;28;20167;-85
2022/09/14 16:34:01;;;;;;;6.07;1.63;;;19.60;99.90;;;;;;5117982;28;20262;-85
2022/09/14 16:36:29;;;;;;;3.97;1.53;;;19.70;99.90;;;;;;5118922;28;20249;-84